createdAt,value
2018-06-09T00:00:18.915Z,7.40
2018-06-09T00:01:18.891Z,7.30
2018-06-09T00:02:18.872Z,8.00
2018-06-09T00:03:18.851Z,7.40
2018-06-09T00:04:18.829Z,8.40
2018-06-09T00:05:18.809Z,8.50
2018-06-09T00:06:18.790Z,8.40
2018-06-09T00:07:18.767Z,8.00
2018-06-09T00:08:18.747Z,8.30
2018-06-09T00:09:18.725Z,7.70
2018-06-09T00:10:18.709Z,7.40
2018-06-09T00:11:18.685Z,8.00
2018-06-09T00:12:18.666Z,7.30
2018-06-09T00:13:18.647Z,7.20
2018-06-09T00:14:18.622Z,7.30
2018-06-09T00:15:18.632Z,6.30
2018-06-09T00:16:18.785Z,6.50
2018-06-09T00:17:18.763Z,6.20
2018-06-09T00:18:18.539Z,6.70
2018-06-09T00:20:03.496Z,6.50
2018-06-09T00:21:00.651Z,6.50
2018-06-09T00:22:00.833Z,7.00
2018-06-09T00:23:00.610Z,6.40
2018-06-09T00:24:00.617Z,6.50
2018-06-09T00:25:00.769Z,5.90
2018-06-09T00:26:00.547Z,6.80
2018-06-09T00:27:00.528Z,6.20
2018-06-09T00:28:00.509Z,6.50
2018-06-09T00:29:00.485Z,6.20
2018-06-09T00:30:00.463Z,6.60
2018-06-09T00:31:00.443Z,6.00
2018-06-09T00:32:00.421Z,6.30
2018-06-09T00:33:00.401Z,6.30
2018-06-09T00:34:00.379Z,6.20
2018-06-09T00:35:00.359Z,6.60
2018-06-09T00:36:00.339Z,6.30
2018-06-09T00:37:00.317Z,5.90
2018-06-09T00:38:00.296Z,6.40
2018-06-09T00:39:00.275Z,5.80
2018-06-09T00:40:00.257Z,5.70
2018-06-09T00:41:00.238Z,6.20
2018-06-09T00:42:00.212Z,6.20
2018-06-09T00:43:00.192Z,5.90
2018-06-09T00:44:00.173Z,6.80
2018-06-09T00:45:00.149Z,6.30
2018-06-09T00:46:00.132Z,6.50
2018-06-09T00:47:00.108Z,6.30
2018-06-09T00:48:00.088Z,6.20
2018-06-09T00:49:00.070Z,6.50
2018-06-09T00:50:00.051Z,6.40
2018-06-09T00:51:00.027Z,6.40
2018-06-09T00:52:00.153Z,6.20
2018-06-09T00:52:59.981Z,6.00
2018-06-09T00:53:59.960Z,6.20
2018-06-09T00:54:59.940Z,6.00
2018-06-09T00:55:59.919Z,6.40
2018-06-09T00:56:59.897Z,6.80
2018-06-09T00:57:59.878Z,6.40
2018-06-09T00:58:59.860Z,6.30
2018-06-09T00:59:59.836Z,6.50
2018-06-09T01:00:59.812Z,5.70
2018-06-09T01:01:59.792Z,6.20
2018-06-09T01:02:59.798Z,6.00
2018-06-09T01:03:59.750Z,6.50
2018-06-09T01:04:59.729Z,6.10
2018-06-09T01:05:59.708Z,6.10
2018-06-09T01:06:59.689Z,6.30
2018-06-09T01:07:59.668Z,6.10
2018-06-09T01:08:59.648Z,6.50
2018-06-09T01:09:59.622Z,6.00
2018-06-09T01:10:59.603Z,5.70
2018-06-09T01:11:59.584Z,6.10
2018-06-09T01:12:59.560Z,6.10
2018-06-09T01:13:59.539Z,5.80
2018-06-09T01:14:59.522Z,5.90
2018-06-09T01:15:59.498Z,6.10
2018-06-09T01:16:59.476Z,6.50
2018-06-09T01:17:59.454Z,6.30
2018-06-09T01:18:59.435Z,5.90
2018-06-09T01:19:59.414Z,6.10
2018-06-09T01:20:59.392Z,6.10
2018-06-09T01:21:59.371Z,5.70
2018-06-09T01:22:59.350Z,5.90
2018-06-09T01:23:59.331Z,5.80
2018-06-09T01:24:59.306Z,5.50
2018-06-09T01:25:59.287Z,5.90
2018-06-09T01:26:59.264Z,5.90
2018-06-09T01:27:59.248Z,6.20
2018-06-09T01:28:59.224Z,5.60
2018-06-09T01:29:59.203Z,6.40
2018-06-09T01:30:59.182Z,6.00
2018-06-09T01:31:59.162Z,6.50
2018-06-09T01:32:59.141Z,5.90
2018-06-09T01:33:59.118Z,5.50
2018-06-09T01:34:59.097Z,5.60
2018-06-09T01:35:59.078Z,5.70
2018-06-09T01:36:59.056Z,5.40
2018-06-09T01:37:59.034Z,6.00
2018-06-09T01:38:59.014Z,5.40
2018-06-09T01:39:58.996Z,5.40
2018-06-09T01:40:58.971Z,5.60
2018-06-09T01:41:58.950Z,5.70
2018-06-09T01:42:58.928Z,5.90
2018-06-09T01:43:58.909Z,5.70
2018-06-09T01:44:58.887Z,5.60
2018-06-09T01:45:58.866Z,5.80
2018-06-09T01:46:58.846Z,5.40
2018-06-09T01:47:58.824Z,5.70
2018-06-09T01:48:58.802Z,5.60
2018-06-09T01:49:58.783Z,4.90
2018-06-09T01:50:58.763Z,4.90
2018-06-09T01:51:58.741Z,5.70
2018-06-09T01:52:58.720Z,5.70
2018-06-09T01:53:58.706Z,5.30
2018-06-09T01:54:58.678Z,5.40
2018-06-09T01:55:58.658Z,5.20
2018-06-09T01:56:58.637Z,5.00
2018-06-09T01:57:58.615Z,4.80
2018-06-09T01:58:58.594Z,5.20
2018-06-09T01:59:58.574Z,5.80
2018-06-09T02:00:58.554Z,5.60
2018-06-09T02:01:58.532Z,5.70
2018-06-09T02:02:58.511Z,5.90
2018-06-09T02:03:58.498Z,5.50
2018-06-09T02:04:58.469Z,5.70
2018-06-09T02:05:58.449Z,6.10
2018-06-09T02:06:58.428Z,5.90
2018-06-09T02:07:58.408Z,5.30
2018-06-09T02:08:58.391Z,6.00
2018-06-09T02:09:58.367Z,6.10
2018-06-09T02:10:58.346Z,6.20
2018-06-09T02:11:58.324Z,6.30
2018-06-09T02:12:58.307Z,5.40
2018-06-09T02:13:58.281Z,5.60
2018-06-09T02:14:58.264Z,5.60
2018-06-09T02:15:58.241Z,5.50
2018-06-09T02:16:58.224Z,5.80
2018-06-09T02:17:58.198Z,5.40
2018-06-09T02:18:58.183Z,5.50
2018-06-09T02:19:58.158Z,5.70
2018-06-09T02:20:58.134Z,5.10
2018-06-09T02:21:58.115Z,5.20
2018-06-09T02:22:58.093Z,5.30
2018-06-09T02:23:58.074Z,5.40
2018-06-09T02:24:58.055Z,5.50
2018-06-09T02:25:58.030Z,5.10
2018-06-09T02:26:58.010Z,5.10
2018-06-09T02:27:57.989Z,5.50
2018-06-09T02:28:57.967Z,5.30
2018-06-09T02:29:57.948Z,5.10
2018-06-09T02:30:57.926Z,5.70
2018-06-09T02:31:57.905Z,5.90
2018-06-09T02:32:57.887Z,5.40
2018-06-09T02:33:57.863Z,5.80
2018-06-09T02:34:57.842Z,6.00
2018-06-09T02:35:57.826Z,5.90
2018-06-09T02:36:57.804Z,6.30
2018-06-09T02:37:57.778Z,6.00
2018-06-09T02:38:57.758Z,5.60
2018-06-09T02:39:57.742Z,6.10
2018-06-09T02:40:57.716Z,6.40
2018-06-09T02:41:57.697Z,5.80
2018-06-09T02:42:57.674Z,5.60
2018-06-09T02:43:57.661Z,5.50
2018-06-09T02:44:57.631Z,4.90
2018-06-09T02:45:57.611Z,5.10
2018-06-09T02:46:57.590Z,5.40
2018-06-09T02:47:57.568Z,5.20
2018-06-09T02:48:58.100Z,5.30
2018-06-09T02:49:57.527Z,5.50
2018-06-09T02:50:57.511Z,5.60
2018-06-09T02:51:57.485Z,5.30
2018-06-09T02:52:57.463Z,5.70
2018-06-09T02:53:57.442Z,5.20
2018-06-09T02:54:57.428Z,5.90
2018-06-09T02:55:57.417Z,5.50
2018-06-09T02:56:57.382Z,5.60
2018-06-09T02:57:57.359Z,5.50
2018-06-09T02:58:57.338Z,5.40
2018-06-09T02:59:57.317Z,5.20
2018-06-09T03:00:57.296Z,5.60
2018-06-09T03:01:57.275Z,5.50
2018-06-09T03:02:57.259Z,4.90
2018-06-09T03:03:57.237Z,5.20
2018-06-09T03:04:57.211Z,5.30
2018-06-09T03:05:57.194Z,5.80
2018-06-09T03:06:57.170Z,5.20
2018-06-09T03:07:57.152Z,4.60
2018-06-09T03:08:57.128Z,4.90
2018-06-09T03:09:57.109Z,5.20
2018-06-09T03:10:57.086Z,4.90
2018-06-09T03:11:57.066Z,5.10
2018-06-09T03:12:57.044Z,5.10
2018-06-09T03:13:57.027Z,5.10
2018-06-09T03:14:57.002Z,4.00
2018-06-09T03:15:56.981Z,4.40
2018-06-09T03:16:56.962Z,4.90
2018-06-09T03:17:56.942Z,5.00
2018-06-09T03:18:56.923Z,4.70
2018-06-09T03:19:56.915Z,4.60
2018-06-09T03:20:56.878Z,4.70
2018-06-09T03:21:56.858Z,5.00
2018-06-09T03:22:56.839Z,4.30
2018-06-09T03:23:56.818Z,4.50
2018-06-09T03:24:56.792Z,4.90
2018-06-09T03:25:56.772Z,4.30
2018-06-09T03:26:56.751Z,4.50
2018-06-09T03:27:56.731Z,4.10
2018-06-09T03:28:56.710Z,3.90
2018-06-09T03:29:56.689Z,4.20
2018-06-09T03:30:56.670Z,4.40
2018-06-09T03:31:56.648Z,4.20
2018-06-09T03:32:56.626Z,4.00
2018-06-09T03:33:56.609Z,4.20
2018-06-09T03:34:56.585Z,3.90
2018-06-09T03:35:56.565Z,4.10
2018-06-09T03:36:56.542Z,3.90
2018-06-09T03:37:56.528Z,4.20
2018-06-09T03:38:56.501Z,3.90
2018-06-09T03:39:56.481Z,3.80
2018-06-09T03:40:56.462Z,4.40
2018-06-09T03:41:56.439Z,3.70
2018-06-09T03:42:56.418Z,4.20
2018-06-09T03:43:56.397Z,3.90
2018-06-09T03:44:56.376Z,3.50
2018-06-09T03:45:56.356Z,3.50
2018-06-09T03:46:56.336Z,3.60
2018-06-09T03:47:56.314Z,3.90
2018-06-09T03:48:56.318Z,3.70
2018-06-09T03:49:56.279Z,3.50
2018-06-09T03:50:56.255Z,3.40
2018-06-09T03:51:56.236Z,4.00
2018-06-09T03:52:56.212Z,3.70
2018-06-09T03:53:56.192Z,3.70
2018-06-09T03:54:56.175Z,4.00
2018-06-09T03:55:56.152Z,4.20
2018-06-09T03:56:56.129Z,4.00
2018-06-09T03:57:56.113Z,4.00
2018-06-09T03:58:56.090Z,3.80
2018-06-09T03:59:56.221Z,4.10
2018-06-09T04:00:56.050Z,4.30
2018-06-09T04:01:56.030Z,4.30
2018-06-09T04:02:56.011Z,4.40
2018-06-09T04:03:55.989Z,4.10
2018-06-09T04:04:55.968Z,4.10
2018-06-09T04:05:55.949Z,4.30
2018-06-09T04:06:55.930Z,3.60
2018-06-09T04:07:55.912Z,4.50
2018-06-09T04:08:55.899Z,4.80
2018-06-09T04:09:55.874Z,4.30
2018-06-09T04:10:55.853Z,4.40
2018-06-09T04:11:55.829Z,4.30
2018-06-09T04:12:55.809Z,4.50
2018-06-09T04:13:55.792Z,5.00
2018-06-09T04:14:55.771Z,4.80
2018-06-09T04:15:55.750Z,4.80
2018-06-09T04:16:55.732Z,4.90
2018-06-09T04:17:55.708Z,5.20
2018-06-09T04:18:55.696Z,4.90
2018-06-09T04:19:55.673Z,4.80
2018-06-09T04:20:55.649Z,4.90
2018-06-09T04:21:55.632Z,5.30
2018-06-09T04:22:55.611Z,4.80
2018-06-09T04:23:55.594Z,5.10
2018-06-09T04:24:55.570Z,4.80
2018-06-09T04:25:55.554Z,5.00
2018-06-09T04:26:55.531Z,5.00
2018-06-09T04:27:55.520Z,5.30
2018-06-09T04:28:55.490Z,4.40
2018-06-09T04:29:55.473Z,5.10
2018-06-09T04:30:55.455Z,4.90
2018-06-09T04:31:55.436Z,4.90
2018-06-09T04:32:55.413Z,4.90
2018-06-09T04:33:55.414Z,4.60
2018-06-09T04:34:55.374Z,4.60
2018-06-09T04:35:55.353Z,4.60
2018-06-09T04:36:55.334Z,4.30
2018-06-09T04:37:55.315Z,4.80
2018-06-09T04:38:55.302Z,4.50
2018-06-09T04:39:55.289Z,4.70
2018-06-09T04:40:55.259Z,4.50
2018-06-09T04:41:55.236Z,4.10
2018-06-09T04:42:55.217Z,4.30
2018-06-09T04:43:55.197Z,4.20
2018-06-09T04:44:55.176Z,4.10
2018-06-09T04:45:55.159Z,4.00
2018-06-09T04:46:55.137Z,3.80
2018-06-09T04:47:55.118Z,4.00
2018-06-09T04:48:55.100Z,4.40
2018-06-09T04:49:55.078Z,4.00
2018-06-09T04:50:55.059Z,4.10
2018-06-09T04:51:55.039Z,4.40
2018-06-09T04:52:55.022Z,4.10
2018-06-09T04:53:55.002Z,3.90
2018-06-09T04:54:54.979Z,4.30
2018-06-09T04:55:54.959Z,4.30
2018-06-09T04:56:54.939Z,4.20
2018-06-09T04:57:54.920Z,4.10
2018-06-09T04:58:54.900Z,4.40
2018-06-09T04:59:54.887Z,4.10
2018-06-09T05:00:54.858Z,4.50
2018-06-09T05:01:54.840Z,4.50
2018-06-09T05:02:54.819Z,4.00
2018-06-09T05:03:54.805Z,4.20
2018-06-09T05:04:54.779Z,4.10
2018-06-09T05:05:54.759Z,4.10
2018-06-09T05:06:54.747Z,4.50
2018-06-09T05:07:54.720Z,4.00
2018-06-09T05:08:54.700Z,4.60
2018-06-09T05:09:54.683Z,4.10
2018-06-09T05:10:54.660Z,4.70
2018-06-09T05:11:54.641Z,4.90
2018-06-09T05:12:54.628Z,4.70
2018-06-09T05:13:54.601Z,4.80
2018-06-09T05:14:54.581Z,4.30
2018-06-09T05:15:54.561Z,4.90
2018-06-09T05:16:54.540Z,4.90
2018-06-09T05:17:54.521Z,4.40
2018-06-09T05:18:54.511Z,4.80
2018-06-09T05:19:54.484Z,4.30
2018-06-09T05:20:54.461Z,4.90
2018-06-09T05:21:54.441Z,4.40
2018-06-09T05:22:54.421Z,4.50
2018-06-09T05:23:54.401Z,4.20
2018-06-09T05:24:54.380Z,4.20
2018-06-09T05:25:54.368Z,4.40
2018-06-09T05:26:54.341Z,4.70
2018-06-09T05:27:54.325Z,4.50
2018-06-09T05:28:54.301Z,4.40
2018-06-09T05:29:54.288Z,4.30
2018-06-09T05:30:54.262Z,4.50
2018-06-09T05:31:54.240Z,4.50
2018-06-09T05:32:54.222Z,4.70
2018-06-09T05:33:54.200Z,4.40
2018-06-09T05:34:54.181Z,4.50
2018-06-09T05:35:54.160Z,4.00
2018-06-09T05:36:54.139Z,3.70
2018-06-09T05:37:54.120Z,4.10
2018-06-09T05:38:54.100Z,4.40
2018-06-09T05:39:54.080Z,4.40
2018-06-09T05:40:54.059Z,4.70
2018-06-09T05:41:54.041Z,4.60
2018-06-09T05:42:54.046Z,4.40
2018-06-09T05:43:53.998Z,4.40
2018-06-09T05:44:53.979Z,4.50
2018-06-09T05:45:54.858Z,3.90
2018-06-09T05:46:53.940Z,3.70
2018-06-09T05:47:53.916Z,3.80
2018-06-09T05:48:53.904Z,3.90
2018-06-09T05:49:53.875Z,3.30
2018-06-09T05:50:53.860Z,3.50
2018-06-09T05:51:53.835Z,3.30
2018-06-09T05:52:53.813Z,3.60
2018-06-09T05:53:53.795Z,3.30
2018-06-09T05:54:53.774Z,3.60
2018-06-09T05:55:53.754Z,3.70
2018-06-09T05:56:53.733Z,3.50
2018-06-09T05:57:53.711Z,3.20
2018-06-09T05:58:53.692Z,3.40
2018-06-09T05:59:53.676Z,3.60
2018-06-09T06:00:53.652Z,3.60
2018-06-09T06:01:53.630Z,3.30
2018-06-09T06:02:53.608Z,3.30
2018-06-09T06:03:53.593Z,3.40
2018-06-09T06:04:53.572Z,3.10
2018-06-09T06:05:53.549Z,3.40
2018-06-09T06:06:53.528Z,3.40
2018-06-09T06:07:53.508Z,3.20
2018-06-09T06:08:53.686Z,3.60
2018-06-09T06:09:53.499Z,3.70
2018-06-09T06:10:53.446Z,3.90
2018-06-09T06:11:53.426Z,3.40
2018-06-09T06:12:53.405Z,4.20
2018-06-09T06:13:53.384Z,3.80
2018-06-09T06:14:53.364Z,3.40
2018-06-09T06:15:53.342Z,3.40
2018-06-09T06:16:53.323Z,4.00
2018-06-09T06:17:53.302Z,3.50
2018-06-09T06:18:53.324Z,3.60
2018-06-09T06:19:53.262Z,3.60
2018-06-09T06:20:53.244Z,3.80
2018-06-09T06:21:53.220Z,3.60
2018-06-09T06:22:53.204Z,3.60
2018-06-09T06:23:53.182Z,3.60
2018-06-09T06:24:53.159Z,3.50
2018-06-09T06:25:53.139Z,3.50
2018-06-09T06:26:53.122Z,3.50
2018-06-09T06:27:53.099Z,3.30
2018-06-09T06:28:53.079Z,3.00
2018-06-09T06:29:53.057Z,3.10
2018-06-09T06:30:53.037Z,3.00
2018-06-09T06:31:53.028Z,3.30
2018-06-09T06:32:52.996Z,3.40
2018-06-09T06:33:52.977Z,3.20
2018-06-09T06:34:52.959Z,3.50
2018-06-09T06:35:52.935Z,3.40
2018-06-09T06:36:52.919Z,3.80
2018-06-09T06:37:52.893Z,3.20
2018-06-09T06:38:52.880Z,3.40
2018-06-09T06:39:52.854Z,3.60
2018-06-09T06:40:52.836Z,3.60
2018-06-09T06:41:52.813Z,3.50
2018-06-09T06:42:52.791Z,3.50
2018-06-09T06:43:52.773Z,3.60
2018-06-09T06:44:52.750Z,3.90
2018-06-09T06:45:52.730Z,3.90
2018-06-09T06:46:52.709Z,3.80
2018-06-09T06:47:52.690Z,3.50
2018-06-09T06:48:52.669Z,3.80
2018-06-09T06:49:52.798Z,3.10
2018-06-09T06:50:52.629Z,3.90
2018-06-09T06:51:52.611Z,3.60
2018-06-09T06:52:52.587Z,3.30
2018-06-09T06:53:52.569Z,3.60
2018-06-09T06:54:52.547Z,3.50
2018-06-09T06:55:52.528Z,3.60
2018-06-09T06:56:52.508Z,3.10
2018-06-09T06:57:52.486Z,3.30
2018-06-09T06:58:52.472Z,3.40
2018-06-09T06:59:52.447Z,3.10
2018-06-09T07:00:52.425Z,3.60
2018-06-09T07:01:52.406Z,3.50
2018-06-09T07:02:52.386Z,3.20
2018-06-09T07:03:52.368Z,3.30
2018-06-09T07:04:52.347Z,3.70
2018-06-09T07:05:52.325Z,3.30
2018-06-09T07:06:52.309Z,3.20
2018-06-09T07:07:52.318Z,3.60
2018-06-09T07:08:52.263Z,3.10
2018-06-09T07:09:52.245Z,3.10
2018-06-09T07:10:52.226Z,3.50
2018-06-09T07:11:52.206Z,3.60
2018-06-09T07:12:52.191Z,3.10
2018-06-09T07:13:52.165Z,3.00
2018-06-09T07:14:52.153Z,3.30
2018-06-09T07:15:52.125Z,3.50
2018-06-09T07:16:52.106Z,3.00
2018-06-09T07:17:52.085Z,3.30
2018-06-09T07:18:52.065Z,3.30
2018-06-09T07:19:52.046Z,3.40
2018-06-09T07:20:52.026Z,3.50
2018-06-09T07:21:52.006Z,3.30
2018-06-09T07:22:51.986Z,3.10
2018-06-09T07:23:52.171Z,3.70
2018-06-09T07:24:51.946Z,3.20
2018-06-09T07:25:51.931Z,3.20
2018-06-09T07:26:51.907Z,3.00
2018-06-09T07:27:51.889Z,3.40
2018-06-09T07:28:51.868Z,3.10
2018-06-09T07:29:51.849Z,3.30
2018-06-09T07:30:52.033Z,3.30
2018-06-09T07:31:51.811Z,3.10
2018-06-09T07:32:51.791Z,3.50
2018-06-09T07:33:51.772Z,3.50
2018-06-09T07:34:51.754Z,3.50
2018-06-09T07:35:51.737Z,3.40
2018-06-09T07:36:51.713Z,3.10
2018-06-09T07:37:51.694Z,3.20
2018-06-09T07:38:51.675Z,3.30
2018-06-09T07:39:51.656Z,3.60
2018-06-09T07:40:51.839Z,3.20
2018-06-09T07:41:51.621Z,3.60
2018-06-09T07:42:51.599Z,3.70
2018-06-09T07:43:51.583Z,3.40
2018-06-09T07:44:51.561Z,3.50
2018-06-09T07:45:51.543Z,3.30
2018-06-09T07:46:51.526Z,3.50
2018-06-09T07:47:51.513Z,3.40
2018-06-09T07:48:51.487Z,3.60
2018-06-09T07:49:51.672Z,3.40
2018-06-09T07:50:51.653Z,3.10
2018-06-09T07:51:51.445Z,3.60
2018-06-09T07:52:51.414Z,3.50
2018-06-09T07:53:51.396Z,3.30
2018-06-09T07:54:51.378Z,3.40
2018-06-09T07:55:51.368Z,3.20
2018-06-09T07:56:51.549Z,3.40
2018-06-09T07:57:51.528Z,3.40
2018-06-09T07:58:51.309Z,3.40
2018-06-09T07:59:51.292Z,3.40
2018-06-09T08:00:51.425Z,3.40
2018-06-09T08:01:51.459Z,3.20
2018-06-09T08:02:51.448Z,3.20
2018-06-09T08:03:51.830Z,3.80
2018-06-09T08:04:51.206Z,3.70
2018-06-09T08:05:54.278Z,3.70
2018-06-09T08:06:54.012Z,3.50
2018-06-09T08:07:51.359Z,3.70
2018-06-09T08:08:51.139Z,3.50
2018-06-09T08:09:51.135Z,3.70
2018-06-09T08:10:51.108Z,3.30
2018-06-09T08:11:51.094Z,3.60
2018-06-09T08:12:51.075Z,3.80
2018-06-09T08:13:51.265Z,3.50
2018-06-09T08:14:51.247Z,3.70
2018-06-09T08:15:51.234Z,3.50
2018-06-09T08:16:51.215Z,3.90
2018-06-09T08:17:51.199Z,4.00
2018-06-09T08:18:51.185Z,3.40
2018-06-09T08:19:50.970Z,3.60
2018-06-09T08:20:51.154Z,3.50
2018-06-09T08:21:50.938Z,3.80
2018-06-09T08:22:51.125Z,3.60
2018-06-09T08:23:51.112Z,3.60
2018-06-09T08:24:51.096Z,3.50
2018-06-09T08:25:51.081Z,3.60
2018-06-09T08:26:51.069Z,3.70
2018-06-09T08:27:50.854Z,3.50
2018-06-09T08:28:50.843Z,3.50
2018-06-09T08:29:50.826Z,3.30
2018-06-09T08:30:53.645Z,3.20
2018-06-09T08:31:51.003Z,3.30
2018-06-09T08:32:50.988Z,3.10
2018-06-09T08:33:50.975Z,3.90
2018-06-09T08:34:51.772Z,3.70
2018-06-09T08:35:50.751Z,3.30
2018-06-09T08:36:50.937Z,3.00
2018-06-09T08:37:50.723Z,3.40
2018-06-09T08:38:51.520Z,3.00
2018-06-09T08:39:52.116Z,2.90
2018-06-09T08:40:50.888Z,2.80
2018-06-09T08:41:50.673Z,3.10
2018-06-09T08:42:50.864Z,2.70
2018-06-09T08:43:50.650Z,2.80
2018-06-09T08:44:50.639Z,2.90
2018-06-09T08:45:50.626Z,2.80
2018-06-09T08:46:50.825Z,3.10
2018-06-09T08:47:50.601Z,3.00
2018-06-09T08:48:50.590Z,2.70
2018-06-09T08:49:50.578Z,2.90
2018-06-09T08:50:50.771Z,2.80
2018-06-09T08:51:50.555Z,2.80
2018-06-09T08:52:50.542Z,3.20
2018-06-09T08:53:50.531Z,3.00
2018-06-09T08:54:50.533Z,3.20
2018-06-09T08:55:50.508Z,2.90
2018-06-09T08:56:50.509Z,3.30
2018-06-09T08:57:50.483Z,2.90
2018-06-09T08:58:50.470Z,3.10
2018-06-09T08:59:50.458Z,3.20
2018-06-09T09:00:50.447Z,3.00
2018-06-09T09:01:50.435Z,3.20
2018-06-09T09:02:50.429Z,3.00
2018-06-09T09:03:50.410Z,3.20
2018-06-09T09:04:50.550Z,2.90
2018-06-09T09:05:50.389Z,2.90
2018-06-09T09:06:50.373Z,2.80
2018-06-09T09:07:50.361Z,2.90
2018-06-09T09:08:50.354Z,3.30
2018-06-09T09:09:50.542Z,3.20
2018-06-09T09:11:36.117Z,3.20
2018-06-09T09:12:33.482Z,3.00
2018-06-09T09:13:32.661Z,3.00
2018-06-09T09:14:32.650Z,2.90
2018-06-09T09:15:32.432Z,3.10
2018-06-09T09:16:33.085Z,3.20
2018-06-09T09:17:32.608Z,2.90
2018-06-09T09:18:32.393Z,3.00
2018-06-09T09:19:32.384Z,3.20
2018-06-09T09:20:32.367Z,2.80
2018-06-09T09:21:35.182Z,3.10
2018-06-09T09:22:32.545Z,2.70
2018-06-09T09:24:17.318Z,2.70
2018-06-09T09:25:14.682Z,2.80
2018-06-09T09:26:14.468Z,3.10
2018-06-09T09:27:14.659Z,2.70
2018-06-09T09:28:14.450Z,2.80
2018-06-09T09:29:14.635Z,3.10
2018-06-09T09:30:14.627Z,2.70
2018-06-09T09:31:14.617Z,2.70
2018-06-09T09:32:14.459Z,2.80
2018-06-09T09:33:14.386Z,2.80
2018-06-09T09:34:14.376Z,3.00
2018-06-09T09:35:14.567Z,2.70
2018-06-09T09:36:14.354Z,2.50
2018-06-09T09:37:14.549Z,2.50
2018-06-09T09:38:14.537Z,2.50
2018-06-09T09:39:14.320Z,2.20
2018-06-09T09:40:14.309Z,2.30
2018-06-09T09:41:14.299Z,2.50
2018-06-09T09:42:14.488Z,2.80
2018-06-09T09:43:14.276Z,2.70
2018-06-09T09:44:14.469Z,3.00
2018-06-09T09:45:14.253Z,2.90
2018-06-09T09:46:14.293Z,3.00
2018-06-09T09:47:14.431Z,3.10
2018-06-09T09:48:14.221Z,2.80
2018-06-09T09:49:14.207Z,2.60
2018-06-09T09:50:56.561Z,2.90
2018-06-09T09:51:56.347Z,2.60
2018-06-09T09:52:56.335Z,3.00
2018-06-09T09:53:56.529Z,2.60
2018-06-09T09:54:56.568Z,2.90
2018-06-09T09:55:56.505Z,2.80
2018-06-09T09:56:56.298Z,2.90
2018-06-09T09:57:56.283Z,3.20
2018-06-09T09:58:56.269Z,2.80
2018-06-09T09:59:56.257Z,2.60
2018-06-09T10:00:56.448Z,2.80
2018-06-09T10:01:56.235Z,2.60
2018-06-09T10:02:56.239Z,2.60
2018-06-09T10:03:56.212Z,2.70
2018-06-09T10:04:56.357Z,3.00
2018-06-09T10:05:56.191Z,2.50
2018-06-09T10:06:56.182Z,2.80
2018-06-09T10:07:56.169Z,2.90
2018-06-09T10:08:56.164Z,2.60
2018-06-09T10:09:56.148Z,2.70
2018-06-09T10:10:56.135Z,2.60
2018-06-09T10:11:56.328Z,2.90
2018-06-09T10:12:56.316Z,2.70
2018-06-09T10:13:59.736Z,3.20
2018-06-09T10:14:56.296Z,2.60
2018-06-09T10:15:56.284Z,2.80
2018-06-09T10:18:20.602Z,2.20
2018-06-09T10:19:20.599Z,2.40
2018-06-09T10:20:20.580Z,2.70
2018-06-09T10:21:20.369Z,2.40
2018-06-09T10:22:20.363Z,2.80
2018-06-09T10:23:20.350Z,2.60
2018-06-09T10:24:20.341Z,2.30
2018-06-09T10:25:20.335Z,2.30
2018-06-09T10:26:20.324Z,2.70
2018-06-09T10:27:20.315Z,2.50
2018-06-09T10:28:20.304Z,2.70
2018-06-09T10:29:20.296Z,2.60
2018-06-09T10:30:20.285Z,2.80
2018-06-09T10:31:20.277Z,2.70
2018-06-09T10:32:20.266Z,2.50
2018-06-09T10:33:20.259Z,2.60
2018-06-09T10:34:20.250Z,2.60
2018-06-09T10:35:20.236Z,2.40
2018-06-09T10:36:20.377Z,2.60
2018-06-09T10:37:20.218Z,2.60
2018-06-09T10:38:20.208Z,3.10
2018-06-09T10:39:20.197Z,2.80
2018-06-09T10:40:20.186Z,2.10
2018-06-09T10:41:20.176Z,2.30
2018-06-09T10:42:20.175Z,2.40
2018-06-09T10:43:20.154Z,2.50
2018-06-09T10:44:20.143Z,2.20
2018-06-09T10:45:20.141Z,2.20
2018-06-09T10:46:20.125Z,2.70
2018-06-09T10:47:20.111Z,2.40
2018-06-09T10:48:20.100Z,2.40
2018-06-09T10:49:20.088Z,2.40
2018-06-09T10:50:20.079Z,2.40
2018-06-09T10:51:20.073Z,2.60
2018-06-09T10:52:20.056Z,2.00
2018-06-09T10:53:20.048Z,2.40
2018-06-09T10:54:20.040Z,2.40
2018-06-09T10:55:20.023Z,2.20
2018-06-09T10:56:20.013Z,2.30
2018-06-09T10:57:20.004Z,2.50
2018-06-09T10:58:19.993Z,2.30
2018-06-09T10:59:19.979Z,2.40
2018-06-09T11:00:19.970Z,2.40
2018-06-09T11:01:19.958Z,2.60
2018-06-09T11:02:19.952Z,2.20
2018-06-09T11:03:19.937Z,2.40
2018-06-09T11:04:19.925Z,2.30
2018-06-09T11:05:19.913Z,2.60
2018-06-09T11:06:19.903Z,2.20
2018-06-09T11:07:19.892Z,2.40
2018-06-09T11:08:19.879Z,2.50
2018-06-09T11:09:19.876Z,2.40
2018-06-09T11:10:19.858Z,2.30
2018-06-09T11:11:19.849Z,2.70
2018-06-09T11:12:20.035Z,2.40
2018-06-09T11:13:20.229Z,2.40
2018-06-09T11:14:19.812Z,2.60
2018-06-09T11:15:19.801Z,2.20
2018-06-09T11:16:19.789Z,2.30
2018-06-09T11:17:19.781Z,2.60
2018-06-09T11:18:19.812Z,2.40
2018-06-09T11:19:19.754Z,2.60
2018-06-09T11:20:19.753Z,2.30
2018-06-09T11:21:19.734Z,2.20
2018-06-09T11:22:19.720Z,2.40
2018-06-09T11:23:19.706Z,2.30
2018-06-09T11:24:19.704Z,2.60
2018-06-09T11:25:19.688Z,2.70
2018-06-09T11:26:19.676Z,2.10
2018-06-09T11:27:19.665Z,2.60
2018-06-09T11:28:19.655Z,2.70
2018-06-09T11:29:19.641Z,2.60
2018-06-09T11:30:19.630Z,2.50
2018-06-09T11:31:19.618Z,2.60
2018-06-09T11:32:19.611Z,2.30
2018-06-09T11:33:19.597Z,2.50
2018-06-09T11:34:19.593Z,2.50
2018-06-09T11:35:19.577Z,2.30
2018-06-09T11:36:19.564Z,2.40
2018-06-09T11:37:19.553Z,2.30
2018-06-09T11:38:19.542Z,2.00
2018-06-09T11:39:19.532Z,2.00
2018-06-09T11:40:19.522Z,2.50
2018-06-09T11:41:19.511Z,2.40
2018-06-09T11:42:19.502Z,2.40
2018-06-09T11:43:19.493Z,2.30
2018-06-09T11:44:19.480Z,2.40
2018-06-09T11:45:19.477Z,2.50
2018-06-09T11:46:19.462Z,2.30
2018-06-09T11:47:19.652Z,2.60
2018-06-09T11:48:19.441Z,2.80
2018-06-09T11:49:19.432Z,2.50
2018-06-09T11:50:19.421Z,2.50
2018-06-09T11:51:19.411Z,2.50
2018-06-09T11:52:19.401Z,2.30
2018-06-09T11:53:19.391Z,2.20
2018-06-09T11:54:19.381Z,2.50
2018-06-09T11:55:19.371Z,2.40
2018-06-09T11:56:19.365Z,2.40
2018-06-09T11:57:19.351Z,2.20
2018-06-09T11:58:19.345Z,2.60
2018-06-09T11:59:19.330Z,2.20
2018-06-09T12:00:19.323Z,2.20
2018-06-09T12:01:19.311Z,2.10
2018-06-09T12:02:19.300Z,2.20
2018-06-09T12:03:19.289Z,2.60
2018-06-09T12:04:19.293Z,2.30
2018-06-09T12:05:19.269Z,2.60
2018-06-09T12:06:19.264Z,2.60
2018-06-09T12:07:19.249Z,2.20
2018-06-09T12:08:19.284Z,2.30
2018-06-09T12:09:19.231Z,2.30
2018-06-09T12:10:19.220Z,2.20
2018-06-09T12:11:19.209Z,2.40
2018-06-09T12:12:19.201Z,1.90
2018-06-09T12:13:19.191Z,2.40
2018-06-09T12:14:19.181Z,2.20
2018-06-09T12:15:19.372Z,2.30
2018-06-09T12:16:19.165Z,2.00
2018-06-09T12:17:19.188Z,2.10
2018-06-09T12:18:19.142Z,2.50
2018-06-09T12:19:19.132Z,2.30
2018-06-09T12:20:19.123Z,2.20
2018-06-09T12:21:19.315Z,2.70
2018-06-09T12:22:19.105Z,2.30
2018-06-09T12:23:19.094Z,2.40
2018-06-09T12:24:19.083Z,2.20
2018-06-09T12:25:19.074Z,2.20
2018-06-09T12:26:19.066Z,2.50
2018-06-09T12:27:19.056Z,2.30
2018-06-09T12:28:19.051Z,2.30
2018-06-09T12:29:19.038Z,2.40
2018-06-09T12:30:19.032Z,2.20
2018-06-09T12:31:19.022Z,2.10
2018-06-09T12:32:19.010Z,2.40
2018-06-09T12:33:18.999Z,2.20
2018-06-09T12:34:18.989Z,2.20
2018-06-09T12:35:18.979Z,2.00
2018-06-09T12:36:18.969Z,2.20
2018-06-09T12:37:18.959Z,2.20
2018-06-09T12:38:18.948Z,1.90
2018-06-09T12:39:18.979Z,2.10
2018-06-09T12:40:18.928Z,2.00
2018-06-09T12:41:18.923Z,2.20
2018-06-09T12:42:18.908Z,2.20
2018-06-09T12:43:18.896Z,2.10
2018-06-09T12:44:18.886Z,2.50
2018-06-09T12:45:18.883Z,2.30
2018-06-09T12:46:18.865Z,2.30
2018-06-09T12:47:18.864Z,2.70
2018-06-09T12:48:18.844Z,2.10
2018-06-09T12:49:18.834Z,2.50
2018-06-09T12:50:18.833Z,2.50
2018-06-09T12:51:18.812Z,2.00
2018-06-09T12:52:18.802Z,2.60
2018-06-09T12:53:18.790Z,2.30
2018-06-09T12:54:18.779Z,2.70
2018-06-09T12:55:18.777Z,2.40
2018-06-09T12:56:18.761Z,2.10
2018-06-09T12:57:18.747Z,2.30
2018-06-09T12:58:18.737Z,2.60
2018-06-09T12:59:18.725Z,2.30
2018-06-09T13:00:18.715Z,2.70
2018-06-09T13:01:18.704Z,2.30
2018-06-09T13:02:18.694Z,2.50
2018-06-09T13:03:18.682Z,2.40
2018-06-09T13:04:18.676Z,2.40
2018-06-09T13:05:18.660Z,2.40
2018-06-09T13:06:18.653Z,2.40
2018-06-09T13:07:18.640Z,2.20
2018-06-09T13:08:18.628Z,2.10
2018-06-09T13:09:18.768Z,2.50
2018-06-09T13:10:18.607Z,2.00
2018-06-09T13:11:18.595Z,2.10
2018-06-09T13:12:18.588Z,2.40
2018-06-09T13:13:18.578Z,2.30
2018-06-09T13:14:18.568Z,2.40
2018-06-09T13:15:18.553Z,2.40
2018-06-09T13:16:18.544Z,2.60
2018-06-09T13:17:18.531Z,2.80
2018-06-09T13:18:18.521Z,2.60
2018-06-09T13:19:18.509Z,2.60
2018-06-09T13:20:18.506Z,2.30
2018-06-09T13:21:18.690Z,2.40
2018-06-09T13:22:18.481Z,2.60